createdAt,value
2023-05-11T00:01:46.484Z,97910.06
2023-05-11T00:04:16.126Z,97915.22
2023-05-11T00:06:45.199Z,97921.59
2023-05-11T00:09:14.464Z,97918.56
2023-05-11T00:11:43.551Z,97919.28
2023-05-11T00:14:12.695Z,97920.25
2023-05-11T00:16:41.718Z,97919.63
2023-05-11T00:19:10.946Z,97925.59
2023-05-11T00:21:39.929Z,97931.78
2023-05-11T00:24:09.554Z,97926.03
2023-05-11T00:26:38.571Z,97932.13
2023-05-11T00:29:07.912Z,97923.94
2023-05-11T00:31:37.073Z,97933.47
2023-05-11T00:34:06.578Z,97931.59
2023-05-11T00:36:35.496Z,97933.59
2023-05-11T00:39:05.120Z,97935.25
2023-05-11T00:41:34.085Z,97942.31
2023-05-11T00:44:03.284Z,97942.09
2023-05-11T00:46:32.735Z,97950.19
2023-05-11T00:49:02.522Z,97946.38
2023-05-11T00:51:33.678Z,97945.66
2023-05-11T00:54:03.604Z,97960.88
2023-05-11T00:56:32.587Z,97960.56
2023-05-11T00:59:02.414Z,97965.53
2023-05-11T01:01:31.954Z,97963.41
2023-05-11T01:04:01.173Z,97970.34
2023-05-11T01:06:33.454Z,97969.91
2023-05-11T01:09:10.785Z,97980.81
2023-05-11T01:11:52.336Z,97982.41
2023-05-11T01:14:59.154Z,97980.00
2023-05-11T01:18:00.031Z,97982.41
2023-05-11T01:20:31.973Z,97985.25
2023-05-11T01:23:22.375Z,97999.44
2023-05-11T01:26:11.008Z,98001.63
2023-05-11T01:28:49.635Z,97999.97
2023-05-11T01:31:21.068Z,98009.72
2023-05-11T01:34:03.571Z,98002.59
2023-05-11T01:36:39.891Z,98013.53
2023-05-11T01:39:12.908Z,98020.75
2023-05-11T01:41:47.185Z,98023.56
2023-05-11T01:44:19.358Z,98015.16
2023-05-11T01:46:49.894Z,98011.69
2023-05-11T01:49:20.472Z,98013.78
2023-05-11T01:51:52.478Z,98013.81
2023-05-11T01:54:23.172Z,98017.72
2023-05-11T01:56:53.496Z,98024.78
2023-05-11T01:59:23.671Z,98022.13
2023-05-11T02:01:52.855Z,98022.94
2023-05-11T02:04:24.754Z,98019.06
2023-05-11T02:06:56.168Z,98030.22
2023-05-11T02:09:27.022Z,98021.31
2023-05-11T02:11:59.519Z,98034.66
2023-05-11T02:14:35.221Z,98025.13
2023-05-11T02:17:06.583Z,98035.56
2023-05-11T02:19:37.944Z,98040.16
2023-05-11T02:22:08.413Z,98039.81
2023-05-11T02:24:39.171Z,98042.34
2023-05-11T02:27:08.299Z,98048.28
2023-05-11T02:29:37.402Z,98046.72
2023-05-11T02:32:11.480Z,98049.75
2023-05-11T02:34:43.994Z,98053.69
2023-05-11T02:37:22.252Z,98061.13
2023-05-11T02:40:00.054Z,98065.53
2023-05-11T02:42:35.905Z,98064.47
2023-05-11T02:45:09.906Z,98069.03
2023-05-11T02:51:40.753Z,98083.72
2023-05-11T02:54:12.341Z,98092.81
2023-05-11T02:56:46.988Z,98098.06
2023-05-11T02:59:16.993Z,98093.41
2023-05-11T03:01:47.195Z,98092.78
2023-05-11T03:08:16.005Z,98102.88
2023-05-11T03:10:45.808Z,98110.91
2023-05-11T03:13:15.100Z,98103.81
2023-05-11T03:15:45.392Z,98106.56
2023-05-11T03:18:15.569Z,98105.59
2023-05-11T03:20:46.318Z,98113.41
2023-05-11T03:23:18.238Z,98120.03
2023-05-11T03:25:48.377Z,98111.81
2023-05-11T03:28:18.974Z,98108.47
2023-05-11T03:31:00.814Z,98116.16
2023-05-11T03:33:32.350Z,98113.22
2023-05-11T03:36:05.709Z,98114.19
2023-05-11T03:38:37.998Z,98111.34
2023-05-11T03:41:09.487Z,98120.22
2023-05-11T03:43:41.897Z,98116.09
2023-05-11T03:46:15.247Z,98115.44
2023-05-11T03:48:45.154Z,98118.47
2023-05-11T03:51:21.750Z,98115.72
2023-05-11T03:53:51.030Z,98118.56
2023-05-11T03:56:20.096Z,98121.16
2023-05-11T03:58:49.623Z,98121.09
2023-05-11T04:01:18.592Z,98122.44
2023-05-11T04:03:54.735Z,98121.72
2023-05-11T04:06:25.726Z,98124.94
2023-05-11T04:09:05.854Z,98127.25
2023-05-11T04:11:37.465Z,98121.47
2023-05-11T04:14:06.840Z,98118.25
2023-05-11T04:16:35.831Z,98129.72
2023-05-11T04:19:05.391Z,98124.25
2023-05-11T04:21:34.466Z,98121.31
2023-05-11T04:24:05.403Z,98129.31
2023-05-11T04:26:35.126Z,98128.38
2023-05-11T04:29:06.075Z,98131.38
2023-05-11T04:31:35.577Z,98132.84
2023-05-11T04:34:09.477Z,98139.91
2023-05-11T04:36:39.668Z,98141.47
2023-05-11T04:39:08.841Z,98139.66
2023-05-11T04:41:40.072Z,98142.50
2023-05-11T04:44:10.374Z,98143.69
2023-05-11T04:46:39.811Z,98138.34
2023-05-11T04:49:09.808Z,98154.56
2023-05-11T04:51:41.445Z,98150.59
2023-05-11T04:54:11.572Z,98152.97
2023-05-11T04:56:41.848Z,98146.72
2023-05-11T04:59:11.737Z,98151.91
2023-05-11T05:01:40.589Z,98152.41
2023-05-11T05:04:09.935Z,98158.72
2023-05-11T05:06:40.550Z,98160.75
2023-05-11T05:09:09.891Z,98162.25
2023-05-11T05:11:38.963Z,98165.84
2023-05-11T05:14:08.350Z,98179.75
2023-05-11T05:16:37.326Z,98174.91
2023-05-11T05:19:06.639Z,98170.63
2023-05-11T05:21:36.778Z,98164.72
2023-05-11T05:24:07.212Z,98162.78
2023-05-11T05:26:36.456Z,98163.13
2023-05-11T05:29:07.963Z,98157.56
2023-05-11T05:31:37.753Z,98158.59
2023-05-11T05:34:07.434Z,98163.31
2023-05-11T05:36:37.673Z,98160.69
2023-05-11T05:39:11.159Z,98162.47
2023-05-11T05:41:40.516Z,98156.38
2023-05-11T05:44:11.168Z,98158.03
2023-05-11T05:46:41.342Z,98151.38
2023-05-11T05:49:10.775Z,98156.69
2023-05-11T05:51:40.153Z,98159.19
2023-05-11T05:54:10.010Z,98157.69
2023-05-11T05:56:39.201Z,98155.75
2023-05-11T05:59:14.228Z,98155.91
2023-05-11T06:01:47.217Z,98157.34
2023-05-11T06:04:18.058Z,98148.94
2023-05-11T06:06:47.487Z,98145.53
2023-05-11T06:09:16.573Z,98151.78
2023-05-11T06:11:45.732Z,98155.22
2023-05-11T06:14:14.958Z,98152.44
2023-05-11T06:16:45.025Z,98156.75
2023-05-11T06:19:14.441Z,98147.63
2023-05-11T06:21:51.014Z,98137.69
2023-05-11T06:24:20.958Z,98141.06
2023-05-11T06:26:50.335Z,98138.44
2023-05-11T06:29:20.860Z,98140.00
2023-05-11T06:31:55.359Z,98140.75
2023-05-11T06:34:24.591Z,98136.13
2023-05-11T06:36:53.707Z,98134.91
2023-05-11T06:39:23.894Z,98137.91
2023-05-11T06:41:57.015Z,98143.94
2023-05-11T06:44:30.625Z,98128.81
2023-05-11T06:47:02.970Z,98129.72
2023-05-11T06:49:32.826Z,98125.69
2023-05-11T06:52:02.151Z,98128.25
2023-05-11T06:54:31.978Z,98124.91
2023-05-11T06:57:05.790Z,98122.97
2023-05-11T06:59:40.169Z,98121.41
2023-05-11T07:02:10.678Z,98121.72
2023-05-11T07:04:40.287Z,98111.59
2023-05-11T07:07:12.586Z,98111.63
2023-05-11T07:09:42.702Z,98109.75
2023-05-11T07:12:15.562Z,98110.75
2023-05-11T07:14:45.544Z,98109.63
2023-05-11T07:17:15.337Z,98103.09
2023-05-11T07:19:45.494Z,98107.47
2023-05-11T07:22:15.586Z,98107.53
2023-05-11T07:24:45.708Z,98098.50
2023-05-11T07:27:19.075Z,98107.25
2023-05-11T07:29:52.258Z,98097.81
2023-05-11T07:32:22.542Z,98095.59
2023-05-11T07:34:53.549Z,98094.50
2023-05-11T07:37:23.674Z,98097.44
2023-05-11T07:39:53.510Z,98098.19
2023-05-11T07:42:23.296Z,98089.97
2023-05-11T07:44:53.203Z,98086.94
2023-05-11T07:47:23.193Z,98086.19
2023-05-11T07:49:53.642Z,98081.41
2023-05-11T07:52:23.428Z,98080.19
2023-05-11T07:54:53.335Z,98075.22
2023-05-11T07:57:22.737Z,98080.13
2023-05-11T08:00:01.267Z,98077.31
2023-05-11T08:02:47.168Z,98071.00
2023-05-11T08:05:16.887Z,98070.25
2023-05-11T08:07:46.862Z,98064.81
2023-05-11T08:10:21.544Z,98060.59
2023-05-11T08:12:51.928Z,98057.00
2023-05-11T08:15:27.946Z,98063.78
2023-05-11T08:18:00.822Z,98047.34
2023-05-11T08:20:35.548Z,98045.31
2023-05-11T08:23:06.807Z,98054.75
2023-05-11T08:25:39.806Z,98047.00
2023-05-11T08:28:15.869Z,98040.00
2023-05-11T08:30:46.957Z,98039.47
2023-05-11T08:33:36.075Z,98041.72
2023-05-11T08:36:08.691Z,98036.88
2023-05-11T08:38:41.725Z,98031.28
2023-05-11T08:41:19.130Z,98026.22
2023-05-11T08:43:51.581Z,98028.34
2023-05-11T08:46:29.113Z,98020.16
2023-05-11T08:49:02.075Z,98017.00
2023-05-11T08:51:40.914Z,98015.00
2023-05-11T08:54:16.467Z,98007.09
2023-05-11T08:57:04.762Z,98004.13
2023-05-11T08:59:56.343Z,97997.94
2023-05-11T09:02:37.739Z,97996.66
2023-05-11T09:05:18.075Z,97992.06
2023-05-11T09:07:59.704Z,97985.09
2023-05-11T09:10:45.877Z,97978.72
2023-05-11T09:13:23.370Z,97973.03
2023-05-11T09:16:01.212Z,97963.47
2023-05-11T09:18:36.484Z,97965.16
2023-05-11T09:21:20.128Z,97960.81
2023-05-11T09:24:05.522Z,97951.22
2023-05-11T09:26:38.361Z,97957.78
2023-05-11T09:29:22.892Z,97951.84
2023-05-11T09:31:53.371Z,97945.69
2023-05-11T09:34:26.056Z,97943.09
2023-05-11T09:37:02.378Z,97938.47
2023-05-11T09:39:52.604Z,97940.81
2023-05-11T09:42:32.412Z,97934.22
2023-05-11T09:45:08.061Z,97932.84
2023-05-11T09:47:48.982Z,97923.97
2023-05-11T09:52:57.450Z,97922.38
2023-05-11T09:55:30.657Z,97919.03
2023-05-11T09:58:02.477Z,97916.84
2023-05-11T10:00:36.201Z,97917.94
2023-05-11T10:03:08.890Z,97903.06
2023-05-11T10:05:45.920Z,97910.63
2023-05-11T10:08:18.040Z,97909.06
2023-05-11T10:10:49.354Z,97912.81
2023-05-11T10:13:24.512Z,97904.75
2023-05-11T10:15:57.106Z,97908.09
2023-05-11T10:18:28.351Z,97898.69
2023-05-11T10:21:00.223Z,97902.94
2023-05-11T10:23:30.341Z,97904.63
2023-05-11T10:26:00.648Z,97897.50
2023-05-11T10:28:34.085Z,97894.94
2023-05-11T10:31:06.559Z,97899.25
2023-05-11T10:33:42.580Z,97893.34
2023-05-11T10:36:19.414Z,97894.66
2023-05-11T10:38:55.414Z,97892.22
2023-05-11T10:42:10.618Z,97895.19
2023-05-11T10:45:02.977Z,97897.75
2023-05-11T10:47:52.027Z,97896.56
2023-05-11T10:50:49.703Z,97899.78
2023-05-11T10:53:43.665Z,97894.16
2023-05-11T10:57:01.561Z,97888.69
2023-05-11T11:00:13.346Z,97885.34
2023-05-11T11:02:47.747Z,97885.09
2023-05-11T11:05:37.110Z,97893.22
2023-05-11T11:08:10.484Z,97887.59
2023-05-11T11:10:51.433Z,97892.63
2023-05-11T11:13:24.444Z,97892.22
2023-05-11T11:16:02.041Z,97888.09
2023-05-11T11:18:35.442Z,97883.34
2023-05-11T11:21:07.824Z,97888.00
2023-05-11T11:23:56.667Z,97878.00
2023-05-11T11:26:55.394Z,97884.28
2023-05-11T11:29:26.598Z,97876.34
2023-05-11T11:31:56.660Z,97887.16
2023-05-11T11:34:37.709Z,97877.00
2023-05-11T11:37:10.275Z,97884.50
2023-05-11T11:40:02.874Z,97877.47
2023-05-11T11:43:01.706Z,97883.72
2023-05-11T11:45:42.232Z,97880.22
2023-05-11T11:48:16.083Z,97882.84
2023-05-11T11:50:51.294Z,97884.13
2023-05-11T11:54:01.280Z,97872.97
2023-05-11T11:56:37.168Z,97877.28
2023-05-11T11:59:14.469Z,97876.16
2023-05-11T12:01:47.823Z,97875.88
2023-05-11T12:04:35.542Z,97882.47
2023-05-11T12:07:11.507Z,97883.06
2023-05-11T12:09:49.441Z,97874.63
2023-05-11T12:12:20.219Z,97877.09
2023-05-11T12:14:56.084Z,97876.47
2023-05-11T12:17:31.011Z,97878.00
2023-05-11T12:20:20.259Z,97878.19
2023-05-11T12:23:00.360Z,97885.50
2023-05-11T12:25:35.603Z,97879.22
2023-05-11T12:28:05.856Z,97886.19
2023-05-11T12:30:39.202Z,97877.38
2023-05-11T12:33:18.104Z,97880.41
2023-05-11T12:35:59.458Z,97883.16
2023-05-11T12:38:31.835Z,97888.25
2023-05-11T12:41:12.761Z,97887.09
2023-05-11T12:43:44.596Z,97880.94
2023-05-11T12:46:21.351Z,97886.47
2023-05-11T12:48:59.173Z,97888.97
2023-05-11T12:51:53.952Z,97882.44
2023-05-11T12:54:30.412Z,97888.03
2023-05-11T12:57:06.263Z,97886.06
2023-05-11T12:59:49.820Z,97881.63
2023-05-11T13:02:22.117Z,97881.97
2023-05-11T13:04:53.284Z,97885.88
2023-05-11T13:07:29.410Z,97883.56
2023-05-11T13:10:05.310Z,97879.72
2023-05-11T13:12:35.772Z,97879.94
2023-05-11T13:15:16.835Z,97881.94
2023-05-11T13:17:47.198Z,97873.63
2023-05-11T13:20:27.989Z,97878.97
2023-05-11T13:23:06.712Z,97880.09
2023-05-11T13:25:55.599Z,97874.63
2023-05-11T13:28:26.596Z,97885.28
2023-05-11T13:31:05.519Z,97884.78
2023-05-11T13:33:36.726Z,97888.53
2023-05-11T13:36:09.445Z,97882.34
2023-05-11T13:38:40.819Z,97873.81
2023-05-11T13:41:14.439Z,97881.22
2023-05-11T13:43:44.625Z,97878.69
2023-05-11T13:46:15.662Z,97883.31
2023-05-11T13:48:47.521Z,97892.78
2023-05-11T13:51:18.588Z,97887.25
2023-05-11T13:53:55.159Z,97887.13
2023-05-11T13:56:26.679Z,97882.28
2023-05-11T13:58:59.974Z,97884.06
2023-05-11T14:01:30.407Z,97885.69
2023-05-11T14:04:04.250Z,97891.13
2023-05-11T14:06:37.672Z,97889.63
2023-05-11T14:09:09.075Z,97893.91
2023-05-11T14:11:43.990Z,97897.06
2023-05-11T14:14:15.338Z,97900.66
2023-05-11T14:16:45.253Z,97895.84
2023-05-11T14:19:16.055Z,97903.59
2023-05-11T14:21:46.350Z,97898.19
2023-05-11T14:24:16.036Z,97901.91
2023-05-11T14:26:48.353Z,97908.94
2023-05-11T14:29:18.182Z,97915.91
2023-05-11T14:31:50.108Z,97912.88
2023-05-11T14:34:23.632Z,97916.81
2023-05-11T14:36:53.732Z,97909.38
2023-05-11T14:39:24.615Z,97907.16
2023-05-11T14:41:54.698Z,97902.22
2023-05-11T14:44:26.352Z,97904.03
2023-05-11T14:46:59.623Z,97907.81
2023-05-11T14:49:30.203Z,97902.00
2023-05-11T14:52:00.784Z,97909.16
2023-05-11T14:54:36.256Z,97911.53
2023-05-11T14:57:10.492Z,97908.56
2023-05-11T14:59:55.412Z,97909.31
2023-05-11T15:02:34.123Z,97914.59
2023-05-11T15:05:13.136Z,97916.84
2023-05-11T15:07:49.279Z,97929.38
2023-05-11T15:10:23.112Z,97921.09
2023-05-11T15:12:56.317Z,97915.44
2023-05-11T15:15:28.211Z,97924.75
2023-05-11T15:18:03.491Z,97926.31
2023-05-11T15:20:42.295Z,97932.88
2023-05-11T15:23:19.599Z,97933.44
2023-05-11T15:25:51.886Z,97942.06
2023-05-11T15:28:25.948Z,97947.38
2023-05-11T15:31:06.097Z,97942.63
2023-05-11T15:33:40.789Z,97947.94
2023-05-11T15:36:25.641Z,97939.25
2023-05-11T15:38:58.145Z,97949.19
2023-05-11T15:41:39.709Z,97952.13
2023-05-11T15:44:15.712Z,97955.19
2023-05-11T15:46:48.694Z,97954.38
2023-05-11T15:49:26.599Z,97959.00
2023-05-11T15:52:02.879Z,97949.38
2023-05-11T15:54:42.306Z,97956.91
2023-05-11T15:57:12.795Z,97957.91
2023-05-11T15:59:43.302Z,97956.50
2023-05-11T16:02:14.786Z,97959.41
2023-05-11T16:04:52.587Z,97964.41
2023-05-11T16:07:28.921Z,97968.19
2023-05-11T16:10:10.653Z,97964.81
2023-05-11T16:12:48.380Z,97967.91
2023-05-11T16:15:25.782Z,97974.72
2023-05-11T16:18:19.792Z,97972.06
2023-05-11T16:21:26.926Z,97979.06
2023-05-11T16:24:07.226Z,97968.59
2023-05-11T16:26:42.030Z,97971.63
2023-05-11T16:29:17.829Z,97970.50
2023-05-11T16:31:53.041Z,97976.59
2023-05-11T16:34:58.019Z,97977.53
2023-05-11T16:37:45.556Z,97976.00
2023-05-11T16:40:28.516Z,97977.91
2023-05-11T16:43:02.043Z,97975.13
2023-05-11T16:45:45.149Z,97981.91
2023-05-11T16:48:19.154Z,97977.44
2023-05-11T16:50:57.190Z,97972.56
2023-05-11T16:53:32.661Z,97977.50
2023-05-11T16:56:05.306Z,97973.88
2023-05-11T16:58:46.709Z,97969.31
2023-05-11T17:01:26.308Z,97972.66
2023-05-11T17:04:16.955Z,97987.56
2023-05-11T17:07:02.534Z,97987.69
2023-05-11T17:09:50.338Z,97988.91
2023-05-11T17:12:25.197Z,97982.88
2023-05-11T17:15:02.839Z,97979.97
2023-05-11T17:17:39.659Z,97987.63
2023-05-11T17:20:19.720Z,97988.84
2023-05-11T17:23:03.671Z,97986.09
2023-05-11T17:25:39.524Z,97985.06
2023-05-11T17:28:14.299Z,97982.84
2023-05-11T17:30:53.917Z,97979.78
2023-05-11T17:33:36.300Z,97985.16
2023-05-11T17:36:16.019Z,97983.22
2023-05-11T17:38:46.059Z,97985.16
2023-05-11T17:41:23.343Z,97977.63
2023-05-11T17:43:57.464Z,97983.59
2023-05-11T17:46:33.490Z,97978.69
2023-05-11T17:49:13.281Z,97982.31
2023-05-11T17:51:52.008Z,97974.41
2023-05-11T17:54:32.599Z,97975.41
2023-05-11T17:59:56.457Z,97986.38
2023-05-11T18:02:36.497Z,97973.88
2023-05-11T18:05:11.298Z,97974.56
2023-05-11T18:07:53.975Z,97975.34
2023-05-11T18:10:31.142Z,97971.00
2023-05-11T18:15:55.805Z,97977.03
2023-05-11T18:18:28.353Z,97971.59
2023-05-11T18:21:08.104Z,97967.38
2023-05-11T18:23:44.306Z,97974.00
2023-05-11T18:26:16.535Z,97978.34
2023-05-11T18:28:48.317Z,97976.78
2023-05-11T18:31:25.049Z,97981.59
2023-05-11T18:34:03.106Z,97970.91
2023-05-11T18:36:37.915Z,97977.22
2023-05-11T18:39:09.007Z,97973.56
2023-05-11T18:41:40.468Z,97975.75
2023-05-11T18:44:14.947Z,97971.19
2023-05-11T18:46:48.465Z,97973.38
2023-05-11T18:52:06.534Z,97971.94
2023-05-11T18:54:36.592Z,97966.66
2023-05-11T18:57:09.352Z,97964.72
2023-05-11T18:59:41.248Z,97964.28
2023-05-11T19:02:13.962Z,97965.97
2023-05-11T19:04:44.841Z,97959.72
2023-05-11T19:07:14.945Z,97967.75
2023-05-11T19:09:47.526Z,97962.59
2023-05-11T19:12:20.910Z,97963.44
2023-05-11T19:14:50.436Z,97962.78
2023-05-11T19:17:23.014Z,97958.41
2023-05-11T19:19:53.542Z,97954.59
2023-05-11T19:22:23.894Z,97949.53
2023-05-11T19:24:54.478Z,97954.22
2023-05-11T19:27:25.204Z,97944.50
2023-05-11T19:29:55.462Z,97944.16
2023-05-11T19:32:27.298Z,97938.44
2023-05-11T19:34:57.433Z,97944.53
2023-05-11T19:37:27.476Z,97939.63
2023-05-11T19:40:18.770Z,97940.56
2023-05-11T19:42:49.533Z,97942.75
2023-05-11T19:45:19.669Z,97946.56
2023-05-11T19:47:49.771Z,97945.03
2023-05-11T19:50:21.844Z,97937.00
2023-05-11T19:52:54.225Z,97935.47
2023-05-11T19:55:24.253Z,97934.56
2023-05-11T19:57:53.581Z,97927.50
2023-05-11T20:00:26.409Z,97931.22
2023-05-11T20:02:58.389Z,97930.63
2023-05-11T20:05:28.787Z,97922.59
2023-05-11T20:07:58.969Z,97921.28
2023-05-11T20:10:28.523Z,97920.56
2023-05-11T20:12:59.717Z,97922.09
2023-05-11T20:15:30.122Z,97919.00
2023-05-11T20:17:59.995Z,97926.41
2023-05-11T20:20:30.186Z,97919.25
2023-05-11T20:23:01.389Z,97922.56
2023-05-11T20:25:31.252Z,97919.25
2023-05-11T20:28:00.831Z,97917.53
2023-05-11T20:30:30.564Z,97917.06
2023-05-11T20:35:37.359Z,97912.53
2023-05-11T20:38:09.166Z,97911.56
2023-05-11T20:40:41.655Z,97916.59
2023-05-11T20:43:14.348Z,97921.50
2023-05-11T20:45:47.022Z,97910.00
2023-05-11T20:48:23.374Z,97906.28
2023-05-11T20:51:04.625Z,97912.63
2023-05-11T20:53:36.492Z,97903.47
2023-05-11T20:56:08.471Z,97908.94
2023-05-11T20:58:41.238Z,97911.25
2023-05-11T21:01:13.272Z,97909.56
2023-05-11T21:03:45.260Z,97905.47
2023-05-11T21:06:17.781Z,97902.69
2023-05-11T21:08:49.769Z,97909.03
2023-05-11T21:11:22.536Z,97904.84
2023-05-11T21:13:53.525Z,97908.56
2023-05-11T21:16:24.730Z,97910.47
2023-05-11T21:18:56.528Z,97909.88
2023-05-11T21:21:28.386Z,97916.22
2023-05-11T21:23:59.360Z,97914.19
2023-05-11T21:26:30.624Z,97899.34
2023-05-11T21:29:03.302Z,97906.16
2023-05-11T21:31:33.972Z,97896.53
2023-05-11T21:34:06.218Z,97901.38
2023-05-11T21:36:38.179Z,97896.00
2023-05-11T21:39:10.405Z,97891.06
2023-05-11T21:41:41.600Z,97892.06
2023-05-11T21:44:13.605Z,97892.09
2023-05-11T21:46:44.851Z,97889.50
2023-05-11T21:49:16.528Z,97887.34
2023-05-11T21:51:48.254Z,97882.34
2023-05-11T21:54:23.694Z,97881.09
2023-05-11T21:56:55.344Z,97887.44
2023-05-11T21:59:29.207Z,97885.41
2023-05-11T22:02:01.239Z,97882.78
2023-05-11T22:04:32.974Z,97881.84
2023-05-11T22:07:05.583Z,97871.66
2023-05-11T22:09:38.297Z,97873.69
2023-05-11T22:12:11.298Z,97865.56
2023-05-11T22:14:44.674Z,97863.16
2023-05-11T22:17:16.568Z,97868.03
2023-05-11T22:19:49.367Z,97867.19
2023-05-11T22:22:20.299Z,97878.00
2023-05-11T22:24:52.190Z,97869.31
2023-05-11T22:27:24.025Z,97863.06
2023-05-11T22:29:55.949Z,97869.72
2023-05-11T22:32:28.072Z,97863.97
2023-05-11T22:35:03.430Z,97857.72
2023-05-11T22:37:36.083Z,97846.91
2023-05-11T22:40:09.262Z,97844.41
2023-05-11T22:42:41.252Z,97846.69
2023-05-11T22:45:14.116Z,97848.06
2023-05-11T22:47:46.140Z,97837.91
2023-05-11T22:50:18.023Z,97843.78
2023-05-11T22:52:50.030Z,97835.69
2023-05-11T22:55:22.380Z,97837.06
2023-05-11T22:57:51.891Z,97841.09
2023-05-11T23:00:21.395Z,97839.63
2023-05-11T23:02:53.709Z,97837.09
2023-05-11T23:05:26.092Z,97837.22
2023-05-11T23:07:59.553Z,97839.47
2023-05-11T23:10:31.630Z,97834.00
2023-05-11T23:13:03.399Z,97831.19
2023-05-11T23:15:35.055Z,97834.53
2023-05-11T23:18:06.529Z,97834.31
2023-05-11T23:20:38.041Z,97839.56
2023-05-11T23:23:10.429Z,97842.97
2023-05-11T23:25:43.677Z,97842.75
2023-05-11T23:28:15.296Z,97842.97
2023-05-11T23:30:49.990Z,97840.06
2023-05-11T23:33:22.524Z,97840.47
2023-05-11T23:35:53.314Z,97844.97
2023-05-11T23:38:28.750Z,97851.31
2023-05-11T23:41:01.402Z,97858.34
2023-05-11T23:43:35.304Z,97860.88
2023-05-11T23:46:07.543Z,97858.25
2023-05-11T23:48:39.983Z,97852.03
2023-05-11T23:51:10.756Z,97853.09
2023-05-11T23:53:43.023Z,97851.66
2023-05-11T23:56:14.663Z,97853.47
2023-05-11T23:58:48.672Z,97853.47
